M I D A S
Marine Information and Data Acquisition System
Tripno 1531 of the Zeeleeuw from 2008-08-04 08:20:09 to 2008-08-04 14:43:14
Back to CruiseResearch ActivitiesStationsMapUnderway DataData graphs

EquipmentUnitsComment
TimeDGPSUTC
LatitudeDGPSDM.mWGS84
LongitudeDGPSDM.mWGS84
HeadingGyrodeg 
SOGDGPSknotsSpeed over ground
COGDGPSdegCourse over ground
DepthEcho soundermeters200 kHz
Missing or incorrect values are displayed as -999
Navigation data collected by the RV Zeeleeuw from 2008-08-04 08:22:21 to 2008-08-04 14:46:13
Time Latitude Longitude Heading SOG COG Depth
2008-08-04 08:23:26 51°13.64 2°55.992 113.9 3.8 295 -999
2008-08-04 08:24:26 51°13.668 2°55.891 110.7 4.1 292 -999
2008-08-04 08:25:26 51°13.687 2°55.808 96.1 2.6 282 8.1
2008-08-04 08:26:26 51°13.691 2°55.762 78.9 0.9 278 9.8
2008-08-04 08:27:26 51°13.702 2°55.768 43.5 1.5 23 10.3
2008-08-04 08:28:26 51°13.696 2°55.76 14.9 1.4 202 -999
2008-08-04 08:29:26 51°13.706 2°55.748 334.9 2.3 331 -999
2008-08-04 08:30:26 51°13.764 2°55.689 329.5 5.7 328 9.1
2008-08-04 08:31:26 51°13.882 2°55.595 335.9 9 336 9.2
2008-08-04 08:32:26 51°14.02 2°55.493 335.4 9.2 335 9.5
2008-08-04 08:33:26 51°14.153 2°55.395 336.2 7.7 333 9.7
2008-08-04 08:34:26 51°14.253 2°55.301 324.3 6.5 321 9.5
2008-08-04 08:35:26 51°14.329 2°55.166 303.4 7.5 304 9.9
2008-08-04 08:36:26 51°14.414 2°54.962 305.2 10.2 308 9.2
2008-08-04 08:37:26 51°14.552 2°54.795 339.9 10.7 338 8.7
2008-08-04 08:38:26 51°14.72 2°54.705 348.6 10.8 341 8.5
2008-08-04 08:39:26 51°14.887 2°54.61 342.4 10.7 337 8.4
2008-08-04 08:40:26 51°15.05 2°54.51 342.1 10.2 336 7.3
2008-08-04 08:41:25 51°15.199 2°54.408 342.3 9.9 337 7.8
2008-08-04 08:42:25 51°15.352 2°54.312 343.9 9.9 339 8
2008-08-04 08:43:23 51°15.5 2°54.221 344.1 9.8 339 8.6
2008-08-04 08:44:22 51°15.649 2°54.124 343.6 9.9 337 9.2
2008-08-04 08:45:22 51°15.801 2°54.032 347.1 9.7 344 9.7
2008-08-04 08:46:22 51°15.959 2°54.003 6.9 9.5 4 10.1
2008-08-04 08:47:22 51°16.112 2°54.054 17.3 9.3 14 10.1
2008-08-04 08:48:22 51°16.26 2°54.028 339.3 9.3 329 10.1
2008-08-04 08:49:22 51°16.379 2°53.852 323 9.9 315 10.4
2008-08-04 08:50:22 51°16.501 2°53.662 322.8 10.7 315 10.4
2008-08-04 08:51:22 51°16.636 2°53.451 322.8 11.7 317 10.4
2008-08-04 08:52:22 51°16.786 2°53.259 332.7 11.4 329 10.1
2008-08-04 08:53:22 51°16.954 2°53.151 350.2 10.4 351 6.8
2008-08-04 08:54:22 51°17.126 2°53.172 13.2 10.6 11 7.6
2008-08-04 08:55:22 51°17.291 2°53.268 27.8 10.7 29 8
2008-08-04 08:56:22 51°17.42 2°53.455 50.2 10.6 51 8.1
2008-08-04 08:57:22 51°17.524 2°53.683 51.4 10.7 53 8.1
2008-08-04 08:58:22 51°17.636 2°53.903 49.2 10.6 50 7.9
2008-08-04 08:59:22 51°17.751 2°54.086 33 7 29 8
2008-08-04 09:00:22 51°17.825 2°54.098 353.5 3.7 343 8.8
2008-08-04 09:01:22 51°17.877 2°54.06 344.5 3.4 332 8.6
2008-08-04 09:02:22 51°17.911 2°54.022 338.4 1.7 312 8.9
2008-08-04 09:03:22 51°17.92 2°53.998 337.2 0.8 280 8.9
2008-08-04 09:04:22 51°17.918 2°53.982 337.3 0.5 235 9.1
2008-08-04 09:05:22 51°17.908 2°53.976 345.8 0.8 188 8.7
2008-08-04 09:06:22 51°17.893 2°53.974 356.8 1 180 9.1
2008-08-04 09:07:22 51°17.874 2°53.97 3.9 1.1 189 8.7
2008-08-04 09:08:22 51°17.855 2°53.969 7.1 1.2 186 8.7
2008-08-04 09:09:22 51°17.835 2°53.967 11.2 1.2 186 8.8
2008-08-04 09:10:22 51°17.815 2°53.965 13 1.2 183 8.7
2008-08-04 09:11:22 51°17.796 2°53.963 11.4 1.1 188 8.8
2008-08-04 09:12:22 51°17.795 2°53.958 354.3 2 337 8.9
2008-08-04 09:13:22 51°17.852 2°53.919 349.9 4.7 343 8.8
2008-08-04 09:14:22 51°17.934 2°53.883 353.9 5.3 346 8.9
2008-08-04 09:15:22 51°18.02 2°53.85 353.9 5.2 346 9.2
2008-08-04 09:16:22 51°18.106 2°53.814 353.4 5.4 344 9.6
2008-08-04 09:17:22 51°18.193 2°53.778 353.7 5.2 345 9.5
2008-08-04 09:18:22 51°18.28 2°53.742 353.9 5.4 345 9.7
2008-08-04 09:19:22 51°18.361 2°53.71 352.2 3.8 340 10.1
2008-08-04 09:20:22 51°18.397 2°53.676 343.2 1.8 318 10.2
2008-08-04 09:21:22 51°18.411 2°53.653 346.1 0.9 304 10.3
2008-08-04 09:22:22 51°18.417 2°53.636 345.5 0.7 299 10.3
2008-08-04 09:23:22 51°18.429 2°53.62 354.1 1.7 336 10.4
2008-08-04 09:24:22 51°18.473 2°53.603 359.4 3.2 349 10.4
2008-08-04 09:25:22 51°18.531 2°53.586 358.4 3.5 348 10.5
2008-08-04 09:26:22 51°18.534 2°53.576 348 1 180 10.7
2008-08-04 09:27:25 51°18.512 2°53.573 6.8 1.4 181 -999
2008-08-04 09:28:25 51°18.5 2°53.568 9.7 0.4 295 10.8
2008-08-04 09:29:24 51°18.501 2°53.56 359.1 0.2 279 10.3
2008-08-04 09:30:23 51°18.502 2°53.554 359.2 0.3 342 10.6
2008-08-04 09:31:22 51°18.504 2°53.55 3.1 0.3 295 10.6
2008-08-04 09:32:22 51°18.505 2°53.546 2.4 0.2 309 10.7
2008-08-04 09:33:22 51°18.509 2°53.541 1.7 0.2 333 10.6
2008-08-04 09:34:22 51°18.512 2°53.537 3.8 0.1 354 10.7
2008-08-04 09:35:22 51°18.513 2°53.536 5 0.1 57 10.8
2008-08-04 09:36:22 51°18.512 2°53.535 9.3 0.3 173 10.2
2008-08-04 09:37:22 51°18.511 2°53.535 10.6 0.1 338 10.7
2008-08-04 09:38:22 51°18.512 2°53.533 10.4 -999 265 10.5
2008-08-04 09:39:22 51°18.513 2°53.533 11.5 0.1 38 10.8
2008-08-04 09:40:22 51°18.513 2°53.533 9.3 0.1 334 10.8
2008-08-04 09:41:22 51°18.512 2°53.532 9.2 0.2 257 10.8
2008-08-04 09:42:22 51°18.513 2°53.532 10.7 0.1 165 10.7
2008-08-04 09:43:22 51°18.513 2°53.532 8.6 -999 240 10.5
2008-08-04 09:44:22 51°18.513 2°53.531 8.7 0.1 27 10.9
2008-08-04 09:45:22 51°18.513 2°53.531 12.5 0.3 126 11.1
2008-08-04 09:46:22 51°18.513 2°53.53 11 -999 219 10.8
2008-08-04 09:47:22 51°18.514 2°53.53 9.8 0.1 350 10.9
2008-08-04 09:48:22 51°18.516 2°53.529 10.3 0.1 294 10.7
2008-08-04 09:49:22 51°18.517 2°53.527 9.1 0.1 348 10.9
2008-08-04 09:50:22 51°18.517 2°53.527 13.1 -999 34 10.6
2008-08-04 09:51:22 51°18.518 2°53.527 13.2 0.1 301 10.7
2008-08-04 09:52:22 51°18.518 2°53.526 12.2 0.1 94 10.6
2008-08-04 09:53:22 51°18.517 2°53.526 13 0.1 301 10.9
2008-08-04 09:54:22 51°18.519 2°53.526 12.2 0.2 323 10.8
2008-08-04 09:55:22 51°18.521 2°53.525 14 -999 307 10.8
2008-08-04 09:56:22 51°18.52 2°53.525 14.5 0.1 93 11
2008-08-04 09:57:22 51°18.521 2°53.525 15.1 0.1 226 10.8
2008-08-04 09:58:22 51°18.519 2°53.525 14.2 0.1 220 10.8
2008-08-04 09:59:22 51°18.518 2°53.525 16.6 0.1 40 10.9
2008-08-04 10:00:22 51°18.519 2°53.526 17.7 0.1 294 10.6
2008-08-04 10:01:22 51°18.518 2°53.525 15.1 0.1 237 10.8
2008-08-04 10:02:22 51°18.519 2°53.526 16.4 0.1 304 10.9
2008-08-04 10:03:22 51°18.519 2°53.525 13 0.1 75 10.8
2008-08-04 10:04:22 51°18.518 2°53.525 13.3 -999 79 11
2008-08-04 10:05:22 51°18.52 2°53.525 14.1 0.2 358 10.6
2008-08-04 10:06:22 51°18.521 2°53.524 12.4 0.1 338 11.2
2008-08-04 10:07:22 51°18.522 2°53.524 14.1 0.1 297 11
2008-08-04 10:08:22 51°18.522 2°53.524 14.2 0.1 308 11
2008-08-04 10:09:22 51°18.521 2°53.524 15.9 0.1 222 11.1
2008-08-04 10:10:22 51°18.52 2°53.524 16.6 0.1 192 11
2008-08-04 10:11:22 51°18.52 2°53.525 13.5 0.1 326 11
2008-08-04 10:12:22 51°18.521 2°53.525 13.9 0.1 21 11.1
2008-08-04 10:13:22 51°18.522 2°53.524 13.2 0.1 348 11.2
2008-08-04 10:14:23 51°18.523 2°53.525 14.2 0.1 7 11.2
2008-08-04 10:15:22 51°18.524 2°53.525 13 0.1 226 11.2
2008-08-04 10:16:23 51°18.522 2°53.524 14.3 0.2 203 10.6
2008-08-04 10:17:22 51°18.52 2°53.525 14.9 0.1 140 11.2
2008-08-04 10:18:22 51°18.52 2°53.525 15.1 0.1 283 10.9
2008-08-04 10:19:22 51°18.521 2°53.525 15.3 0.2 104 10.9
2008-08-04 10:20:22 51°18.521 2°53.525 11.5 0.1 226 11
2008-08-04 10:21:22 51°18.519 2°53.525 11.8 0.2 180 11.1
2008-08-04 10:22:22 51°18.519 2°53.525 12.6 0.1 341 11.1
2008-08-04 10:23:22 51°18.521 2°53.525 12.2 0.1 53 11.2
2008-08-04 10:24:22 51°18.522 2°53.524 9 0.1 48 11.1
2008-08-04 10:25:23 51°18.522 2°53.523 10.8 0.1 299 11.1
2008-08-04 10:26:22 51°18.523 2°53.522 12 -999 54 11.2
2008-08-04 10:27:23 51°18.523 2°53.522 10 0.1 276 11.3
2008-08-04 10:28:22 51°18.522 2°53.522 11.1 0.2 168 11
2008-08-04 10:29:22 51°18.52 2°53.523 11.2 0.1 84 11.3
2008-08-04 10:30:22 51°18.521 2°53.525 9.9 0.1 58 11.3
2008-08-04 10:31:22 51°18.522 2°53.526 8.6 -999 261 11.1
2008-08-04 10:32:22 51°18.522 2°53.526 9.8 -999 157 11.3
2008-08-04 10:33:22 51°18.522 2°53.526 9.9 0.1 183 11.2
2008-08-04 10:34:22 51°18.522 2°53.526 10.9 -999 3 11
2008-08-04 10:35:22 51°18.52 2°53.526 9.6 0.1 96 11.3
2008-08-04 10:36:22 51°18.52 2°53.526 9.3 0.1 38 11.2
2008-08-04 10:37:22 51°18.521 2°53.526 9.3 -999 108 11.3
2008-08-04 10:38:22 51°18.522 2°53.526 7.9 -999 358 11.2
2008-08-04 10:39:22 51°18.521 2°53.526 9.5 0.1 164 10.9
2008-08-04 10:40:22 51°18.519 2°53.526 10.2 0.1 116 11.3
2008-08-04 10:41:22 51°18.518 2°53.526 10.2 0.1 25 11.4
2008-08-04 10:42:22 51°18.519 2°53.526 8.7 -999 343 11.5
2008-08-04 10:43:22 51°18.52 2°53.526 9.6 0.1 255 11.1
2008-08-04 10:44:22 51°18.519 2°53.525 12.4 -999 110 11.4
2008-08-04 10:45:22 51°18.519 2°53.525 12.4 0.1 336 11.2
2008-08-04 10:46:22 51°18.52 2°53.525 11.5 0.1 280 11.2
2008-08-04 10:47:22 51°18.522 2°53.524 10.8 0.1 6 11.4
2008-08-04 10:48:22 51°18.524 2°53.524 11.9 0.1 331 11.1
2008-08-04 10:49:22 51°18.523 2°53.525 15.3 0.1 209 11.2
2008-08-04 10:50:22 51°18.521 2°53.524 13.4 0.2 175 11.2
2008-08-04 10:51:22 51°18.518 2°53.525 14.2 0.1 278 11.3
2008-08-04 10:52:22 51°18.519 2°53.525 12.6 -999 281 11.4
2008-08-04 10:53:22 51°18.519 2°53.526 11.3 -999 130 11.3
2008-08-04 10:54:22 51°18.52 2°53.526 9.4 0.2 291 11.3
2008-08-04 10:55:23 51°18.52 2°53.526 8.2 0.1 4 11.6
2008-08-04 10:56:22 51°18.522 2°53.526 6.8 0.1 33 11.2
2008-08-04 10:57:23 51°18.522 2°53.526 7.4 0.1 34 11.7
2008-08-04 10:58:22 51°18.522 2°53.526 8.1 0.1 244 11.5
2008-08-04 10:59:22 51°18.521 2°53.526 9.3 -999 94 11.3
2008-08-04 11:00:22 51°18.522 2°53.526 9.2 -999 254 11.4
2008-08-04 11:01:22 51°18.52 2°53.526 11.9 0.1 198 11.5
2008-08-04 11:02:23 51°18.519 2°53.527 9.2 0.1 202 11.4
2008-08-04 11:03:22 51°18.519 2°53.526 7.5 0.2 321 11.3
2008-08-04 11:04:23 51°18.52 2°53.526 8 0.1 5 11.6
2008-08-04 11:05:22 51°18.522 2°53.526 5 0.1 32 11.5
2008-08-04 11:06:23 51°18.522 2°53.526 5.4 0.1 74 11.4
2008-08-04 11:07:22 51°18.521 2°53.526 6.9 0.1 291 11.4
2008-08-04 11:08:23 51°18.521 2°53.526 7.2 -999 168 11.4
2008-08-04 11:09:22 51°18.521 2°53.526 6.5 0.1 78 11.6
2008-08-04 11:10:23 51°18.522 2°53.526 5.3 0.1 359 11.6
2008-08-04 11:11:22 51°18.522 2°53.526 4.4 0.1 183 11.4
2008-08-04 11:12:23 51°18.52 2°53.526 5 -999 213 11.7
2008-08-04 11:13:22 51°18.521 2°53.527 2.9 0.1 16 11.5
2008-08-04 11:14:22 51°18.522 2°53.526 3.8 0.1 329 11.4
2008-08-04 11:15:23 51°18.524 2°53.526 4 0.1 132 11.5
2008-08-04 11:16:22 51°18.522 2°53.527 2.8 0.1 93 11.7
2008-08-04 11:17:23 51°18.521 2°53.526 4 0.1 193 11.6
2008-08-04 11:18:22 51°18.52 2°53.526 4.3 0.1 195 11.7
2008-08-04 11:19:23 51°18.519 2°53.528 1.8 0.1 142 11.5
2008-08-04 11:20:22 51°18.519 2°53.528 1.2 -999 215 11.6
2008-08-04 11:21:22 51°18.519 2°53.527 359.9 0.1 5 11.5
2008-08-04 11:22:22 51°18.52 2°53.528 358.7 0.1 315 11.4
2008-08-04 11:23:22 51°18.521 2°53.527 359 0.2 348 11.6
2008-08-04 11:24:22 51°18.521 2°53.528 359.4 0.2 86 11.8
2008-08-04 11:25:22 51°18.522 2°53.527 359.2 0.1 30 11.8
2008-08-04 11:26:22 51°18.52 2°53.528 1.3 0.1 237 11.6
2008-08-04 11:27:22 51°18.518 2°53.528 1.7 0.1 191 11.6
2008-08-04 11:28:22 51°18.516 2°53.529 1 0.1 232 11.6
2008-08-04 11:29:22 51°18.516 2°53.529 358 0.1 37 11.8
2008-08-04 11:30:22 51°18.518 2°53.529 357 0.1 54 11.7
2008-08-04 11:31:22 51°18.517 2°53.53 356 0.1 134 11.7
2008-08-04 11:32:22 51°18.517 2°53.53 354 0.1 358 11.7
2008-08-04 11:33:22 51°18.517 2°53.53 351.9 0.1 210 11.8
2008-08-04 11:34:22 51°18.517 2°53.531 349.5 0.1 106 11.8
2008-08-04 11:35:22 51°18.516 2°53.533 347.5 0.1 153 11.7
2008-08-04 11:36:23 51°18.514 2°53.534 350.1 0.1 119 11.9
2008-08-04 11:37:22 51°18.513 2°53.536 350.8 0.1 14 11.9
2008-08-04 11:38:23 51°18.513 2°53.535 346 0.2 87 11.6
2008-08-04 11:39:22 51°18.513 2°53.537 347.2 0.1 156 12
2008-08-04 11:40:23 51°18.512 2°53.537 346.1 0.1 152 11.5
2008-08-04 11:41:22 51°18.513 2°53.538 344.4 0.2 319 11.8
2008-08-04 11:42:22 51°18.514 2°53.537 341.5 0.1 271 11.9
2008-08-04 11:43:23 51°18.513 2°53.538 345.4 -999 178 12
2008-08-04 11:44:22 51°18.511 2°53.541 343.8 0.2 117 11.9
2008-08-04 11:45:23 51°18.509 2°53.545 344.4 0.2 101 11.9
2008-08-04 11:46:22 51°18.508 2°53.547 343.6 0.1 119 11.9
2008-08-04 11:47:23 51°18.507 2°53.549 344.7 0.1 64 11.9
2008-08-04 11:48:22 51°18.508 2°53.55 345 0.1 299 11.9
2008-08-04 11:49:23 51°18.509 2°53.55 339.4 0.1 242 11.8
2008-08-04 11:50:22 51°18.509 2°53.551 338.2 0.2 89 11.6
2008-08-04 11:51:23 51°18.507 2°53.557 341.7 0.2 126 11.8
2008-08-04 11:52:23 51°18.505 2°53.563 348.2 0.2 107 11.8
2008-08-04 11:53:23 51°18.507 2°53.567 346.4 0.1 49 12
2008-08-04 11:54:23 51°18.508 2°53.57 344.2 -999 341 12
2008-08-04 11:55:22 51°18.509 2°53.573 337.5 -999 45 12
2008-08-04 11:56:23 51°18.508 2°53.577 338.9 0.1 86 12.1
2008-08-04 11:57:22 51°18.509 2°53.58 337.9 -999 63 12.2
2008-08-04 11:58:23 51°18.51 2°53.583 335 0.2 37 12
2008-08-04 11:59:23 51°18.511 2°53.584 332.3 0.2 88 11.7
2008-08-04 12:00:23 51°18.513 2°53.586 330.7 0.2 11 12
2008-08-04 12:01:23 51°18.514 2°53.586 327.1 0.1 20 12.2
2008-08-04 12:02:23 51°18.515 2°53.59 328.4 0.2 87 12.1
2008-08-04 12:03:23 51°18.515 2°53.593 328.1 0.1 63 12.1
2008-08-04 12:04:23 51°18.517 2°53.596 326.9 0.1 93 12.3
2008-08-04 12:05:23 51°18.519 2°53.601 325.3 0.3 63 12.2
2008-08-04 12:06:23 51°18.52 2°53.606 323.4 0.2 88 12.4
2008-08-04 12:07:23 51°18.52 2°53.614 324.9 0.3 111 12.2
2008-08-04 12:08:23 51°18.519 2°53.619 321.5 0.1 60 12.3
2008-08-04 12:09:23 51°18.522 2°53.622 316.9 0.4 16 12.4
2008-08-04 12:10:23 51°18.525 2°53.629 317.9 0.4 63 12.5
2008-08-04 12:11:23 51°18.526 2°53.634 318.4 0.2 66 12.2
2008-08-04 12:12:23 51°18.53 2°53.635 313.2 0.3 3 12.3
2008-08-04 12:13:22 51°18.534 2°53.636 310.3 0.3 11 12.3
2008-08-04 12:14:23 51°18.537 2°53.637 306.2 0.2 19 12.4
2008-08-04 12:15:22 51°18.541 2°53.64 299.3 0.3 43 12.3
2008-08-04 12:16:22 51°18.544 2°53.639 291.6 0.2 334 12.4
2008-08-04 12:17:23 51°18.548 2°53.638 289.5 0.2 353 12.4
2008-08-04 12:18:22 51°18.549 2°53.641 278 0.3 89 12.3
2008-08-04 12:19:23 51°18.548 2°53.642 269.9 0.1 350 12.5
2008-08-04 12:20:22 51°18.548 2°53.642 271.8 0.1 80 12.6
2008-08-04 12:21:23 51°18.548 2°53.642 269.2 0.1 323 12.6
2008-08-04 12:22:22 51°18.55 2°53.641 272.4 -999 51 12.5
2008-08-04 12:23:22 51°18.552 2°53.639 271.8 0.1 356 12.6
2008-08-04 12:24:23 51°18.553 2°53.64 266.7 0.2 89 12.5
2008-08-04 12:25:22 51°18.552 2°53.641 252.5 -999 167 12.8
2008-08-04 12:26:23 51°18.551 2°53.64 251.9 0.2 151 12.6
2008-08-04 12:27:22 51°18.549 2°53.642 250.6 0.2 203 12.7
2008-08-04 12:28:23 51°18.545 2°53.643 245.1 0.3 205 12.6
2008-08-04 12:29:22 51°18.541 2°53.643 251.9 0.2 157 12.7
2008-08-04 12:30:23 51°18.541 2°53.643 271.3 0.1 321 12.8
2008-08-04 12:31:22 51°18.543 2°53.643 278.2 0.5 357 12.9
2008-08-04 12:32:23 51°18.548 2°53.641 283.4 0.3 356 13
2008-08-04 12:33:23 51°18.552 2°53.641 274 0.1 339 12.9
2008-08-04 12:34:23 51°18.553 2°53.643 263.5 0.4 91 12.5
2008-08-04 12:35:23 51°18.552 2°53.641 247.3 0.1 181 13.1
2008-08-04 12:36:23 51°18.55 2°53.643 246.2 0.2 269 12.9
2008-08-04 12:37:23 51°18.549 2°53.643 257 0.2 80 13
2008-08-04 12:38:23 51°18.549 2°53.642 263.7 0.2 320 12.9
2008-08-04 12:39:23 51°18.548 2°53.644 262.4 0.3 256 13.1
2008-08-04 12:40:22 51°18.549 2°53.644 264.9 0.3 81 13.1
2008-08-04 12:41:23 51°18.551 2°53.641 265.6 0.2 55 13
2008-08-04 12:42:23 51°18.552 2°53.641 259 0.1 268 13
2008-08-04 12:43:23 51°18.554 2°53.643 260.4 0.1 275 13.1
2008-08-04 12:44:23 51°18.552 2°53.645 247.9 0.3 186 12.9
2008-08-04 12:45:23 51°18.548 2°53.643 245.2 0.3 154 13.3
2008-08-04 12:46:23 51°18.547 2°53.645 253.7 0.2 304 13.3
2008-08-04 12:47:23 51°18.552 2°53.643 270.5 0.5 352 13.2
2008-08-04 12:48:23 51°18.556 2°53.639 264.1 0.2 48 13.3
2008-08-04 12:49:23 51°18.554 2°53.642 245.1 0.3 181 13.5
2008-08-04 12:50:23 51°18.548 2°53.645 238.2 0.4 167 13.3
2008-08-04 12:51:23 51°18.544 2°53.644 252.9 -999 185 13.4
2008-08-04 12:52:23 51°18.547 2°53.644 266.8 0.2 3 13.3
2008-08-04 12:53:23 51°18.551 2°53.642 268.8 0.2 35 13.4
2008-08-04 12:54:23 51°18.553 2°53.641 258.7 -999 346 13.6
2008-08-04 12:55:23 51°18.555 2°53.642 256 0.2 313 13.6
2008-08-04 12:56:23 51°18.554 2°53.642 255 0.1 118 13.5
2008-08-04 12:57:23 51°18.551 2°53.644 246.4 0.3 173 13.5
2008-08-04 12:58:23 51°18.547 2°53.644 251.2 0.1 340 13.6
2008-08-04 12:59:23 51°18.551 2°53.643 267.7 0.2 329 13.6
2008-08-04 13:00:23 51°18.554 2°53.64 257.3 -999 2 13.6
2008-08-04 13:01:23 51°18.551 2°53.643 245 0.3 213 13.7
2008-08-04 13:02:23 51°18.549 2°53.643 253.3 0.3 124 13.9
2008-08-04 13:03:23 51°18.549 2°53.642 259.9 0.1 309 13.8
2008-08-04 13:04:23 51°18.551 2°53.641 257.5 0.2 262 13.8
2008-08-04 13:05:23 51°18.552 2°53.643 253.5 0.2 72 13.8
2008-08-04 13:06:23 51°18.549 2°53.643 247.3 0.2 164 13.9
2008-08-04 13:07:23 51°18.549 2°53.643 257.2 0.1 326 14
2008-08-04 13:08:22 51°18.552 2°53.643 260.5 0.1 288 13.8
2008-08-04 13:09:23 51°18.553 2°53.642 252.2 0.2 312 13.9
2008-08-04 13:10:22 51°18.554 2°53.642 255.3 0.1 324 13.9
2008-08-04 13:11:23 51°18.555 2°53.64 257.5 0.2 46 13.9
2008-08-04 13:12:23 51°18.557 2°53.639 254.3 0.1 356 14.1
2008-08-04 13:13:23 51°18.558 2°53.64 251.9 0.1 328 14
2008-08-04 13:14:23 51°18.556 2°53.64 249.8 -999 16 14.1
2008-08-04 13:15:23 51°18.557 2°53.64 256.1 0.1 56 13.9
2008-08-04 13:16:23 51°18.556 2°53.642 248.4 0.2 131 14
2008-08-04 13:17:23 51°18.551 2°53.644 244.5 0.1 122 14.2
2008-08-04 13:18:23 51°18.55 2°53.643 254.9 -999 338 14.2
2008-08-04 13:19:23 51°18.55 2°53.644 254.8 -999 288 14.1
2008-08-04 13:20:23 51°18.552 2°53.642 261.2 0.3 6 14.1
2008-08-04 13:21:23 51°18.555 2°53.64 256.5 0.2 339 14.2
2008-08-04 13:22:23 51°18.555 2°53.641 253.9 0.1 181 14.1
2008-08-04 13:23:23 51°18.553 2°53.642 253.1 0.1 155 14.3
2008-08-04 13:24:23 51°18.553 2°53.642 256.1 0.1 2 14.2
2008-08-04 13:25:23 51°18.556 2°53.64 260.1 0.1 321 14.3
2008-08-04 13:26:23 51°18.557 2°53.64 252.5 0.2 136 14.2
2008-08-04 13:27:23 51°18.554 2°53.641 249.6 0.3 162 14.3
2008-08-04 13:28:23 51°18.553 2°53.642 253.8 0.1 328 14.3
2008-08-04 13:29:23 51°18.554 2°53.642 254.7 -999 263 14.4
2008-08-04 13:30:23 51°18.556 2°53.64 256.9 0.1 335 14.4
2008-08-04 13:31:23 51°18.555 2°53.642 247.7 0.3 160 14.4
2008-08-04 13:32:23 51°18.553 2°53.643 248.3 0.3 196 14.3
2008-08-04 13:33:23 51°18.553 2°53.642 256.3 0.2 316 14.5
2008-08-04 13:34:23 51°18.556 2°53.641 259.2 0.1 327 14.4
2008-08-04 13:35:23 51°18.558 2°53.64 255.2 0.1 40 14.2
2008-08-04 13:36:23 51°18.558 2°53.64 250.5 0.1 83 14.5
2008-08-04 13:37:23 51°18.556 2°53.641 249.7 0.1 19 14.3
2008-08-04 13:38:23 51°18.557 2°53.641 254.7 0.2 336 14.4
2008-08-04 13:39:23 51°18.559 2°53.639 254.3 0.2 286 14.3
2008-08-04 13:40:23 51°18.559 2°53.64 248.6 0.1 159 14.4
2008-08-04 13:41:23 51°18.556 2°53.642 245.5 0.1 174 14.4
2008-08-04 13:42:23 51°18.549 2°53.644 236.5 0.4 183 14.4
2008-08-04 13:43:23 51°18.546 2°53.642 251 0.4 309 14.6
2008-08-04 13:44:23 51°18.55 2°53.635 255.6 0.5 261 14.3
2008-08-04 13:45:23 51°18.545 2°53.609 252.3 0.9 249 14.5
2008-08-04 13:46:23 51°18.543 2°53.594 253.2 1.2 254 14.4
2008-08-04 13:47:23 51°18.549 2°53.575 269.9 0.9 340 14.6
2008-08-04 13:48:23 51°18.526 2°53.57 185.6 4.7 144 14.2
2008-08-04 13:49:23 51°18.506 2°53.73 87 6.6 79 14.5
2008-08-04 13:50:23 51°18.516 2°53.884 97.6 5.5 84 14.2
2008-08-04 13:51:23 51°18.525 2°54.021 100.6 4.9 84 14.1
2008-08-04 13:52:23 51°18.533 2°54.144 106.3 4.4 86 14
2008-08-04 13:53:23 51°18.54 2°54.259 111.8 4.2 86 14.2
2008-08-04 13:54:23 51°18.542 2°54.365 127.5 4.2 92 13.9
2008-08-04 13:55:23 51°18.547 2°54.495 101.1 5.2 84 14
2008-08-04 13:56:23 51°18.557 2°54.63 99.8 5.1 83 13.8
2008-08-04 13:57:23 51°18.571 2°54.767 95.1 5.3 81 13.7
2008-08-04 13:58:23 51°18.582 2°54.905 102.1 5.1 85 13.7
2008-08-04 13:59:23 51°18.597 2°55.041 92.8 5.3 79 13.6
2008-08-04 14:00:23 51°18.613 2°55.178 96.3 5.3 79 13.7
2008-08-04 14:01:23 51°18.63 2°55.314 97.3 5.3 79 13.6
2008-08-04 14:02:23 51°18.643 2°55.45 100.3 5.2 80 13.3
2008-08-04 14:03:23 51°18.656 2°55.59 102.8 5.2 82 13.4
2008-08-04 14:04:23 51°18.666 2°55.725 105.3 5.1 83 13.2
2008-08-04 14:05:23 51°18.675 2°55.857 108.2 4.8 86 13.2
2008-08-04 14:06:23 51°18.685 2°55.982 100.7 4.7 81 13.2
2008-08-04 14:07:23 51°18.697 2°56.105 102.2 4.7 81 13
2008-08-04 14:08:23 51°18.709 2°56.229 98.9 4.8 81 12.9
2008-08-04 14:09:23 51°18.712 2°56.355 133.7 4.4 105 12.6
2008-08-04 14:10:23 51°18.681 2°56.424 193 2.4 145 12.3
2008-08-04 14:11:23 51°18.656 2°56.382 253 4.8 257 12.8
2008-08-04 14:12:23 51°18.645 2°56.18 248.5 9 248 12.7
2008-08-04 14:13:23 51°18.544 2°55.987 230.3 9.7 228 12.6
2008-08-04 14:14:23 51°18.467 2°55.767 253.9 9.7 258 12.6
2008-08-04 14:15:23 51°18.456 2°55.506 260.4 9.9 265 12.8
2008-08-04 14:16:23 51°18.38 2°55.302 220.5 9.4 215 12.9
2008-08-04 14:17:24 51°18.256 2°55.139 224.6 9.4 224 12.5
2008-08-04 14:18:24 51°18.138 2°54.968 225.1 9.5 224 12.4
2008-08-04 14:19:24 51°18.021 2°54.794 224.1 9.7 221 12.3
2008-08-04 14:20:24 51°17.904 2°54.618 226.6 9.7 224 12.3
2008-08-04 14:21:23 51°17.796 2°54.435 228.3 9.7 229 12.1
2008-08-04 14:22:24 51°17.683 2°54.241 226.9 9.9 226 12.2
2008-08-04 14:23:24 51°17.571 2°54.048 226.7 9.8 225 12.1
2008-08-04 14:24:24 51°17.459 2°53.855 226.8 10 226 11.9
2008-08-04 14:25:24 51°17.347 2°53.664 227.7 9.9 229 11.9
2008-08-04 14:26:23 51°17.236 2°53.477 227.7 9.6 226 11.3
2008-08-04 14:27:24 51°17.1 2°53.328 210.2 10 207 11.7
2008-08-04 14:28:24 51°16.929 2°53.303 184.6 10.5 176 11.4
2008-08-04 14:29:24 51°16.752 2°53.362 175.3 11.1 168 14.4
2008-08-04 14:30:24 51°16.573 2°53.453 166.7 11.6 157 14.7
2008-08-04 14:31:24 51°16.4 2°53.59 161.4 11.5 153 14.6
2008-08-04 14:32:23 51°16.231 2°53.726 163.2 11.6 154 14.6
2008-08-04 14:33:24 51°16.053 2°53.862 162 11.6 155 14.3
2008-08-04 14:34:24 51°15.878 2°53.99 165 11.7 153 14.1
2008-08-04 14:35:24 51°15.701 2°54.111 164.3 11.5 160 13.5
2008-08-04 14:36:24 51°15.525 2°54.23 164.1 11.6 155 13.1
2008-08-04 14:37:24 51°15.348 2°54.348 163.8 11.4 158 12.4
2008-08-04 14:38:24 51°15.173 2°54.464 164.7 11.2 162 11.6
2008-08-04 14:39:24 51°15.003 2°54.583 164.6 10.4 155 12.2
2008-08-04 14:40:24 51°14.853 2°54.697 165 10.7 155 12.5
2008-08-04 14:41:24 51°14.68 2°54.82 160.8 11.5 153 12.7
2008-08-04 14:42:23 51°14.512 2°54.958 158.7 11.6 150 13.2
2008-08-04 14:43:24 51°14.348 2°55.142 145.8 11.8 144 13.2
2008-08-04 14:44:23 51°14.213 2°55.327 142.2 9.4 145 13.8
2008-08-04 14:45:24 51°14.096 2°55.43 153.2 7.2 155 13.5